Details From HEGN - HEGN
To HEMA - HEMA
Flight Number -
Tags None
Created
Modified
Stats Distance 110 nm / 203 km
Max Altitude 265 ft / 81 m
Waypoints 6
Social Downloads 10
Likes 0
Share

Download

Looking for another format? Having issues loading an existing format? Contact us
Advertisement - Login to hide

Notes

None

Route

HEGN SOBEL SIBRI LORAS MAK HEMA

ID Type Via Altitude (ft/m) Position (lat/lon) Dist (leg/tot) Name
O HEGN APT - 109 / 33 27.17861 / 33.80084 - / 0 nm
SOBEL FIX - 0 / 0 26.83639 / 34.17778 28 / 28 nm
SIBRI FIX - 0 / 0 25.98547 / 34.44189 53 / 81 nm
LORAS FIX - 0 / 0 25.94694 / 34.45389 2 / 84 nm
MAK VOR - 265 / 81 25.58306 / 34.56722 22 / 106 nm
O HEMA APT - 251 / 77 25.54556 / 34.59111 2 / 109 nm

Altitude Profile

Advertisement - Login to hide

HEGN

Details ICAO HEGN (HRG)
Name Hurghada Intl
Region Egypt
Timezone Africa/Cairo (UTC+2.0)
Stats Elevation 109 ft / 33 m (AMSL)
Location 27.177500° 33.796300°
Runways 2
Magnetic Variation 4.719° E

METAR

HEGN 191700Z 36010KT 6000 NSC 33/11 Q1006 NOSIG

Decode

TAF

TAF HEGN 191700Z 1918/2024 32010G20KT 6000 NSC TEMPO 1918/1924 31020G32 2000 SA

Decode

Departure Runways

ID Width Length Bearing (true/mag) Surface Threshold Overrun Markings Lighting
16L 148 ft / 45 m 13,171 ft / 4,015 m 165.30° / 160.58° ASPHALT 991 ft / 302 m 0 ft / 0 m PREC-APP CENTERLINE EDGE THRESHOLD ALSF-I
16R 197 ft / 60 m 13,168 ft / 4,014 m 165.26° / 160.54° ASPHALT 0 ft / 0 m 394 ft / 120 m PREC-APP CENTERLINE EDGE THRESHOLD ALSF-I
34L 197 ft / 60 m 13,168 ft / 4,014 m 345.26° / 340.54° ASPHALT 0 ft / 0 m 394 ft / 120 m PREC-APP CENTERLINE EDGE THRESHOLD ALSF-I
34R 148 ft / 45 m 13,171 ft / 4,015 m 345.30° / 340.58° ASPHALT 0 ft / 0 m 200 ft / 61 m PREC-APP CENTERLINE EDGE THRESHOLD ALSF-I

HEMA

Details ICAO HEMA (RMF)
Name Marsa Alam Intl
Region Egypt
Timezone Africa/Cairo (UTC+2.0)
Stats Elevation 250 ft / 76 m (AMSL)
Location 25.558100° 34.583100°
Runways 1
Magnetic Variation 4.563° E

METAR

HEMA 191700Z 32010KT CAVOK 34/02 Q1006 NOSIG

Decode

TAF

TAF TAF HEMA 191700Z 1918/2024 32015G25KT CAVOK

Decode

Destination Runways

ID Width Length Bearing (true/mag) Surface Threshold Overrun Markings Lighting
15 148 ft / 45 m 10,661 ft / 3,249 m 150.00° / 145.44° ASPHALT 0 ft / 0 m 295 ft / 90 m PREC-APP CENTERLINE EDGE THRESHOLD
33 148 ft / 45 m 10,661 ft / 3,249 m 330.01° / 325.45° ASPHALT 0 ft / 0 m 295 ft / 90 m PREC-APP CENTERLINE EDGE THRESHOLD SALS

Popular Alternatives